Hi Vista, California
Current Conditions -  °F | °C
As of 3:56 PM on Friday 24 Oct 2014 (Local Time) from KWJF Reporting Station
Clear Clear  
Wind Chill: 85°   Ceiling: Unl
Heat Index: 85°   Visibility: 10mi
Dew Point: 30°   Wind: 13mph
Humidity: 14%   Direction: 250°WSW
Pressure: 29.99"   Gusts: NA
Location:  34.7349°N, 118.15°W
Report Text: KWJF 242256Z 25011KT 10SM CLR 29/M01 A2999 RMK AO2 SLP144 T02941011
Loading
Personal Weather Stations






























Interactive Weather Map
Tropical Storm Tracking
New forecast layout! Learn more

10-Day Weather Forecast

Advertisements
Track Severe Weather on mobile